Time;durP1;ratioP1;P1;durP2;ratioP2;P2;SDS_P1;SDS_P2;PMS_P1;PMS_P2;Temp;Humidity;BMP_temperature;BMP_pressure;BME280_temperature;BME280_humidity;BME280_pressure;Samples;Min_cycle;Max_cycle;Signal;HPM_P1;HPM_P2
2021/04/21 00:01:01;;;;;;;25.90;19.88;;;14.80;48.00;;;;;;1494496;39;20635;-52
2021/04/21 00:02:24;;;;;;;24.38;19.67;;;14.80;48.10;;;;;;1496387;39;20035;-54
2021/04/21 00:03:46;;;;;;;27.52;20.85;;;14.80;48.00;;;;;;1494468;39;20043;-52
2021/04/21 00:05:09;;;;;;;28.65;21.45;;;14.80;48.10;;;;;;1495000;39;20023;-51
2021/04/21 00:06:30;;;;;;;27.77;21.77;;;14.80;48.20;;;;;;1495142;39;20027;-52
2021/04/21 00:07:53;;;;;;;27.60;22.20;;;14.80;48.30;;;;;;1493678;39;20087;-51
2021/04/21 00:09:16;;;;;;;27.27;20.80;;;14.80;48.50;;;;;;1494982;39;20035;-52
2021/04/21 00:10:37;;;;;;;27.85;21.58;;;14.80;48.50;;;;;;1493607;39;20440;-51
2021/04/21 00:11:59;;;;;;;29.65;22.23;;;14.70;48.40;;;;;;1493991;39;20032;-51
2021/04/21 00:13:24;;;;;;;27.77;21.33;;;14.70;48.50;;;;;;1492818;39;20261;-52
2021/04/21 00:14:45;;;;;;;25.98;20.27;;;14.70;48.90;;;;;;1494129;39;20415;-51
2021/04/21 00:16:06;;;;;;;30.02;22.40;;;14.70;48.60;;;;;;1490956;39;20620;-51
2021/04/21 00:17:28;;;;;;;27.65;21.75;;;14.70;48.50;;;;;;1488848;39;20550;-54
2021/04/21 00:18:51;;;;;;;27.05;21.67;;;14.70;48.50;;;;;;1490519;39;20031;-51
2021/04/21 00:20:13;;;;;;;26.88;20.73;;;14.70;48.40;;;;;;1490259;39;20359;-53
2021/04/21 00:21:34;;;;;;;33.22;23.10;;;14.70;48.30;;;;;;1489623;39;20083;-50
2021/04/21 00:22:58;;;;;;;28.90;22.17;;;14.60;48.30;;;;;;1491420;39;20031;-50
2021/04/21 00:24:19;;;;;;;30.05;22.45;;;14.60;48.30;;;;;;1494695;39;20047;-52
2021/04/21 00:25:41;;;;;;;29.85;21.95;;;14.60;48.40;;;;;;1493934;39;20031;-53
2021/04/21 00:27:03;;;;;;;28.77;21.48;;;14.60;48.40;;;;;;1494701;39;20035;-54
2021/04/21 00:28:27;;;;;;;28.77;22.58;;;14.60;48.40;;;;;;1493192;39;20049;-53
2021/04/21 00:29:51;;;;;;;27.83;22.48;;;14.60;48.50;;;;;;1493957;39;20127;-54
2021/04/21 00:31:15;;;;;;;29.92;22.58;;;14.60;48.70;;;;;;1495083;39;20031;-52
2021/04/21 00:32:51;;;;;;;30.08;23.05;;;14.60;48.90;;;;;;1494586;39;20464;-50
2021/04/21 00:34:14;;;;;;;30.38;23.02;;;14.60;48.90;;;;;;1493536;39;20041;-53
2021/04/21 00:35:38;;;;;;;30.67;22.95;;;14.60;48.60;;;;;;1489441;39;20050;-51
2021/04/21 00:37:00;;;;;;;32.80;23.05;;;14.50;48.50;;;;;;1488894;39;20112;-50
2021/04/21 00:38:22;;;;;;;28.98;23.17;;;14.50;48.60;;;;;;1489078;39;20020;-50
2021/04/21 00:39:45;;;;;;;26.63;21.45;;;14.50;48.90;;;;;;1489916;39;20051;-52
2021/04/21 00:41:30;;;;;;;27.77;21.08;;;14.50;48.90;;;;;;1489688;39;20138;-53
2021/04/21 00:43:02;;;;;;;25.65;20.77;;;14.40;49.00;;;;;;1489127;39;20483;-53
2021/04/21 00:44:57;;;;;;;27.98;21.95;;;14.40;48.80;;;;;;1492953;39;20357;-52
2021/04/21 00:46:32;;;;;;;29.02;21.67;;;14.40;49.00;;;;;;1494783;39;20038;-53
2021/04/21 00:47:58;;;;;;;26.35;21.90;;;14.40;49.00;;;;;;1489743;39;20591;-50
2021/04/21 00:49:26;;;;;;;29.35;23.20;;;14.40;48.90;;;;;;1495186;39;20424;-53
2021/04/21 00:51:00;;;;;;;27.67;22.25;;;14.40;49.10;;;;;;1495061;39;20109;-51
2021/04/21 00:52:43;;;;;;;28.08;21.27;;;14.40;49.30;;;;;;1495143;39;20043;-52
2021/04/21 00:54:28;;;;;;;27.15;21.08;;;14.30;49.20;;;;;;1494490;39;20067;-51
2021/04/21 00:56:01;;;;;;;28.63;21.20;;;14.30;49.10;;;;;;1494529;39;20548;-54
2021/04/21 00:57:37;;;;;;;29.38;21.58;;;14.30;49.20;;;;;;1495409;39;20700;-54
2021/04/21 00:59:07;;;;;;;30.45;22.85;;;14.30;49.50;;;;;;1493825;39;20030;-51
2021/04/21 01:00:33;;;;;;;31.75;21.33;;;14.30;49.40;;;;;;1495466;39;20395;-54
2021/04/21 01:01:57;;;;;;;30.75;23.35;;;14.20;49.30;;;;;;1489579;39;20024;-53
2021/04/21 01:03:25;;;;;;;29.65;22.75;;;14.20;49.30;;;;;;1492032;39;20027;-50
2021/04/21 01:04:47;;;;;;;29.67;22.42;;;14.20;49.50;;;;;;1494598;39;20050;-52
2021/04/21 01:06:17;;;;;;;30.65;23.45;;;14.20;49.20;;;;;;1495248;39;20045;-52
2021/04/21 01:07:41;;;;;;;29.55;23.52;;;14.20;49.50;;;;;;1494250;39;20059;-51
2021/04/21 01:09:05;;;;;;;31.00;24.08;;;14.20;49.40;;;;;;1494597;39;20055;-50
2021/04/21 01:10:30;;;;;;;29.95;23.10;;;14.10;49.40;;;;;;1495301;39;20029;-50
2021/04/21 01:11:58;;;;;;;31.90;23.80;;;14.10;49.50;;;;;;1489699;39;20076;-52
2021/04/21 01:13:22;;;;;;;31.80;22.25;;;14.10;49.80;;;;;;1489261;39;20344;-50
2021/04/21 01:14:46;;;;;;;30.30;22.77;;;14.10;49.60;;;;;;1489236;39;20036;-50
2021/04/21 01:16:08;;;;;;;28.15;21.73;;;14.00;49.60;;;;;;1487070;40;20044;-53
2021/04/21 01:17:31;;;;;;;30.38;22.95;;;14.00;49.40;;;;;;1487340;40;20121;-51
2021/04/21 01:18:55;;;;;;;27.90;22.25;;;14.00;49.50;;;;;;1485733;40;20051;-53
2021/04/21 01:20:30;;;;;;;30.60;22.50;;;14.00;49.50;;;;;;1486919;40;20024;-50
2021/04/21 01:22:14;;;;;;;30.42;22.98;;;14.00;50.30;;;;;;1486683;39;20376;-54
2021/04/21 01:23:44;;;;;;;30.58;22.77;;;14.00;49.60;;;;;;1488945;39;20020;-52
2021/04/21 01:25:17;;;;;;;28.05;22.00;;;14.00;49.30;;;;;;1489395;39;20055;-50
2021/04/21 01:26:49;;;;;;;29.15;22.60;;;13.90;49.40;;;;;;1489655;39;20035;-50
2021/04/21 01:28:18;;;;;;;30.48;22.60;;;13.90;49.20;;;;;;1488672;39;20027;-53
2021/04/21 01:29:43;;;;;;;31.88;23.27;;;13.90;49.50;;;;;;1490821;39;20103;-49
2021/04/21 01:31:04;;;;;;;29.63;22.77;;;13.90;49.40;;;;;;1486364;40;20028;-53
2021/04/21 01:32:31;;;;;;;32.28;23.80;;;13.90;49.40;;;;;;1483670;39;20036;-53
2021/04/21 01:33:53;;;;;;;29.15;22.95;;;13.80;49.50;;;;;;1489975;39;20039;-53
2021/04/21 01:35:20;;;;;;;29.25;22.48;;;13.80;49.60;;;;;;1491260;39;20031;-51
2021/04/21 01:36:43;;;;;;;30.05;23.10;;;13.80;49.80;;;;;;1490752;39;20036;-50
2021/04/21 01:38:05;;;;;;;31.25;23.98;;;13.80;49.70;;;;;;1490944;39;20037;-50
2021/04/21 01:39:28;;;;;;;34.63;25.33;;;13.80;49.80;;;;;;1490948;39;20039;-51
2021/04/21 01:40:51;;;;;;;29.98;23.55;;;13.80;49.90;;;;;;1490905;39;20727;-51
2021/04/21 01:42:14;;;;;;;30.95;23.85;;;13.80;49.80;;;;;;1489456;39;20477;-52
2021/04/21 01:44:15;;;;;;;30.65;22.83;;;13.80;49.70;;;;;;1489529;39;20031;-50
2021/04/21 01:45:38;;;;;;;30.27;23.67;;;13.70;50.00;;;;;;1490311;39;20031;-54
2021/04/21 01:47:04;;;;;;;38.67;27.48;;;13.70;49.60;;;;;;1490023;39;20036;-51
2021/04/21 01:48:27;;;;;;;35.25;25.35;;;13.70;50.00;;;;;;1489213;39;20028;-54
2021/04/21 01:49:51;;;;;;;29.75;23.25;;;13.70;50.00;;;;;;1489377;39;20337;-53
2021/04/21 01:51:24;;;;;;;31.75;23.50;;;13.70;49.80;;;;;;1490936;39;20032;-50
2021/04/21 01:53:23;;;;;;;29.92;23.48;;;13.70;50.10;;;;;;1490383;39;20098;-54
2021/04/21 01:54:46;;;;;;;29.27;21.92;;;13.70;50.20;;;;;;1490192;39;20035;-51
2021/04/21 01:56:17;;;;;;;29.98;22.65;;;13.70;49.70;;;;;;1488883;39;20036;-52
2021/04/21 01:57:55;;;;;;;27.77;22.17;;;13.60;50.00;;;;;;1490601;39;20043;-53
2021/04/21 01:59:38;;;;;;;29.92;22.30;;;13.60;50.10;;;;;;1490686;39;20048;-52
2021/04/21 02:01:10;;;;;;;27.10;21.33;;;13.60;49.90;;;;;;1490919;39;20388;-51
2021/04/21 02:02:37;;;;;;;30.35;22.70;;;13.60;49.80;;;;;;1491173;39;20039;-53
2021/04/21 02:04:09;;;;;;;33.40;24.58;;;13.60;50.00;;;;;;1491675;39;20050;-54
2021/04/21 02:05:49;;;;;;;29.15;22.25;;;13.50;50.10;;;;;;1490437;39;20024;-53
2021/04/21 02:07:38;;;;;;;30.25;22.52;;;13.50;50.10;;;;;;1491553;39;20834;-53
2021/04/21 02:09:02;;;;;;;30.23;22.55;;;13.50;50.30;;;;;;1490103;39;20036;-51
2021/04/21 02:10:42;;;;;;;29.98;23.80;;;13.50;50.00;;;;;;1491348;39;20132;-50
2021/04/21 02:12:37;;;;;;;31.05;24.10;;;13.50;50.00;;;;;;1491030;39;20028;-50
2021/04/21 02:14:12;;;;;;;30.88;22.98;;;13.50;50.60;;;;;;1489817;39;20341;-52
2021/04/21 02:15:45;;;;;;;29.38;23.50;;;13.50;50.50;;;;;;1491455;39;20049;-51
2021/04/21 02:17:28;;;;;;;31.90;23.65;;;13.40;50.30;;;;;;1489817;39;20136;-51
2021/04/21 02:18:52;;;;;;;30.25;22.42;;;13.50;51.10;;;;;;1491600;39;20100;-52
2021/04/21 02:20:23;;;;;;;31.70;24.48;;;13.40;50.60;;;;;;1491089;39;20098;-50
2021/04/21 02:22:13;;;;;;;32.30;23.77;;;13.50;50.70;;;;;;1486507;40;20036;-51
2021/04/21 02:23:41;;;;;;;32.17;24.55;;;13.40;50.80;;;;;;1484899;40;20036;-51
2021/04/21 02:25:32;;;;;;;34.78;25.35;;;13.50;50.50;;;;;;1485951;40;20048;-51
2021/04/21 02:27:13;;;;;;;28.63;23.52;;;13.40;50.80;;;;;;1490468;39;20104;-50
2021/04/21 02:28:39;;;;;;;31.25;23.60;;;13.40;50.70;;;;;;1490271;39;20035;-51
2021/04/21 02:30:26;;;;;;;32.00;24.65;;;13.40;50.50;;;;;;1490849;39;20043;-55
2021/04/21 02:32:23;;;;;;;31.95;24.30;;;13.40;50.50;;;;;;1490219;39;20036;-53
2021/04/21 02:33:56;;;;;;;31.27;22.65;;;13.40;50.80;;;;;;1487726;40;20044;-51
2021/04/21 02:35:27;;;;;;;30.00;24.02;;;13.40;50.50;;;;;;1485056;40;20032;-52
2021/04/21 02:37:06;;;;;;;32.50;25.15;;;13.30;50.30;;;;;;1487128;39;20058;-51
2021/04/21 02:38:39;;;;;;;28.20;22.83;;;13.30;50.40;;;;;;1487314;40;20028;-51
2021/04/21 02:40:41;;;;;;;31.60;23.85;;;13.30;50.80;;;;;;1484810;40;20032;-50
2021/04/21 02:42:10;;;;;;;27.88;22.90;;;13.30;51.00;;;;;;1483653;40;20045;-50
2021/04/21 02:43:52;;;;;;;30.58;22.10;;;13.30;50.80;;;;;;1486319;39;20043;-51
2021/04/21 02:45:30;;;;;;;30.42;22.58;;;13.30;51.10;;;;;;1484919;40;20087;-50
2021/04/21 02:47:03;;;;;;;31.80;24.88;;;13.20;51.10;;;;;;1485919;40;20082;-54
2021/04/21 02:48:53;;;;;;;30.77;24.38;;;13.20;50.80;;;;;;1486725;40;20368;-51
2021/04/21 02:50:35;;;;;;;30.42;24.10;;;13.20;51.40;;;;;;1486883;40;20034;-50
2021/04/21 02:52:05;;;;;;;31.92;24.60;;;13.20;51.30;;;;;;1485108;40;20239;-52
2021/04/21 02:53:42;;;;;;;30.63;24.08;;;13.20;51.20;;;;;;1486614;40;20039;-52
2021/04/21 02:55:21;;;;;;;30.52;24.92;;;13.20;51.20;;;;;;1485097;40;20040;-52
2021/04/21 02:57:06;;;;;;;29.02;22.90;;;13.10;51.50;;;;;;1486477;40;20059;-50
2021/04/21 02:59:10;;;;;;;33.88;24.73;;;13.10;51.40;;;;;;1484522;39;20029;-53
2021/04/21 03:00:44;;;;;;;30.88;23.98;;;13.10;51.60;;;;;;1490264;39;20285;-54
2021/04/21 03:02:17;;;;;;;34.67;24.58;;;13.10;51.20;;;;;;1484850;40;20081;-50
2021/04/21 03:04:10;;;;;;;32.85;24.92;;;13.10;51.40;;;;;;1487109;40;20056;-53
2021/04/21 03:05:34;;;;;;;28.70;22.85;;;13.00;51.50;;;;;;1480626;39;20029;-52
2021/04/21 03:06:57;;;;;;;34.97;26.10;;;13.00;51.30;;;;;;1486136;40;20040;-52
2021/04/21 03:08:40;;;;;;;30.02;23.45;;;13.00;51.50;;;;;;1486695;40;20047;-51
2021/04/21 03:10:09;;;;;;;32.50;24.17;;;13.00;52.10;;;;;;1484292;40;20052;-53
2021/04/21 03:11:31;;;;;;;32.08;24.42;;;13.00;51.70;;;;;;1487158;40;20032;-53
2021/04/21 03:13:03;;;;;;;34.20;25.08;;;13.00;51.70;;;;;;1485562;39;20063;-49
2021/04/21 03:14:28;;;;;;;34.67;25.50;;;13.00;51.90;;;;;;1487013;40;20024;-51
2021/04/21 03:15:57;;;;;;;33.55;25.15;;;13.00;51.80;;;;;;1484919;40;20559;-53
2021/04/21 03:17:18;;;;;;;35.10;25.88;;;12.90;51.90;;;;;;1485229;40;20076;-51
2021/04/21 03:18:43;;;;;;;33.45;25.58;;;12.90;51.80;;;;;;1486977;40;20080;-51
2021/04/21 03:20:16;;;;;;;32.38;25.23;;;12.90;52.10;;;;;;1485770;40;20032;-54
2021/04/21 03:21:42;;;;;;;35.45;25.58;;;12.90;52.20;;;;;;1486413;40;20059;-54
2021/04/21 03:23:07;;;;;;;31.83;25.20;;;12.90;52.20;;;;;;1486925;39;20053;-51
2021/04/21 03:24:31;;;;;;;32.35;24.55;;;12.90;52.20;;;;;;1484494;39;20044;-54
2021/04/21 03:25:55;;;;;;;35.65;26.02;;;12.90;52.20;;;;;;1484857;40;20020;-54
2021/04/21 03:27:19;;;;;;;33.25;24.98;;;12.90;52.30;;;;;;1485485;40;20088;-54
2021/04/21 03:28:44;;;;;;;32.67;24.65;;;12.90;52.30;;;;;;1484854;39;20541;-54
2021/04/21 03:30:09;;;;;;;36.92;26.05;;;12.90;52.40;;;;;;1486807;40;20028;-56
2021/04/21 03:31:34;;;;;;;35.50;26.05;;;12.90;52.50;;;;;;1485218;40;20036;-54
2021/04/21 03:33:16;;;;;;;35.78;25.67;;;12.90;52.60;;;;;;1481443;40;20033;-50
2021/04/21 03:34:40;;;;;;;32.28;24.92;;;12.90;53.20;;;;;;1484251;40;20724;-52
2021/04/21 03:36:03;;;;;;;33.00;24.25;;;12.90;52.70;;;;;;1479733;40;20044;-52
2021/04/21 03:37:54;;;;;;;34.25;25.50;;;12.80;52.80;;;;;;1480920;40;20044;-52
2021/04/21 03:39:15;;;;;;;34.22;24.17;;;12.80;53.20;;;;;;1483900;40;20052;-53
2021/04/21 03:40:38;;;;;;;35.50;25.92;;;12.80;52.60;;;;;;1484033;40;20032;-49
2021/04/21 03:41:59;;;;;;;34.20;25.65;;;12.80;52.80;;;;;;1484587;40;20475;-53
2021/04/21 03:43:20;;;;;;;34.22;25.10;;;12.80;52.80;;;;;;1481538;40;20024;-54
2021/04/21 03:44:42;;;;;;;35.92;26.63;;;12.80;52.90;;;;;;1482851;40;20040;-52
2021/04/21 03:46:04;;;;;;;32.60;26.98;;;12.80;53.00;;;;;;1481592;40;20041;-54
2021/04/21 03:47:25;;;;;;;34.40;25.73;;;12.80;53.10;;;;;;1481421;40;20052;-56
2021/04/21 03:48:46;;;;;;;34.80;26.48;;;12.80;53.20;;;;;;1484971;40;20619;-53
2021/04/21 03:50:10;;;;;;;32.38;25.17;;;12.80;53.20;;;;;;1483851;40;20025;-52
2021/04/21 03:51:31;;;;;;;36.05;26.20;;;12.80;53.30;;;;;;1482475;40;20048;-52
2021/04/21 03:52:56;;;;;;;33.80;25.25;;;12.70;53.20;;;;;;1481918;40;20051;-54
2021/04/21 03:54:17;;;;;;;31.33;24.52;;;12.80;53.40;;;;;;1478529;40;20110;-53
2021/04/21 03:55:40;;;;;;;36.25;25.90;;;12.70;53.20;;;;;;1482903;40;20083;-51
2021/04/21 03:57:03;;;;;;;34.20;24.60;;;12.70;53.30;;;;;;1481356;40;20110;-50
2021/04/21 03:58:27;;;;;;;35.40;25.10;;;12.70;53.30;;;;;;1483267;40;20028;-54
2021/04/21 03:59:51;;;;;;;34.03;25.02;;;12.70;53.30;;;;;;1483170;40;20041;-54
2021/04/21 04:01:18;;;;;;;35.20;25.35;;;12.70;53.30;;;;;;1483626;40;20021;-50
2021/04/21 04:02:41;;;;;;;37.67;27.58;;;12.70;53.50;;;;;;1481550;40;20122;-54
2021/04/21 04:04:05;;;;;;;36.53;26.45;;;12.70;53.40;;;;;;1484823;40;20064;-51
2021/04/21 04:05:34;;;;;;;35.83;26.48;;;12.70;53.40;;;;;;1482962;40;20086;-53
2021/04/21 04:06:59;;;;;;;32.55;24.40;;;12.70;53.60;;;;;;1481492;40;20641;-51
2021/04/21 04:08:24;;;;;;;35.50;26.20;;;12.70;53.50;;;;;;1481118;40;20021;-53
2021/04/21 04:09:48;;;;;;;40.45;25.15;;;12.70;53.50;;;;;;1481924;40;20048;-53
2021/04/21 04:11:13;;;;;;;32.47;25.02;;;12.60;53.60;;;;;;1482894;40;20033;-50
2021/04/21 04:12:38;;;;;;;35.35;25.55;;;12.60;53.60;;;;;;1478201;40;20024;-51
2021/04/21 04:14:06;;;;;;;34.13;25.30;;;12.60;53.60;;;;;;1480701;40;20028;-54
2021/04/21 04:15:28;;;;;;;31.60;25.00;;;12.60;53.80;;;;;;1481407;40;20037;-50
2021/04/21 04:16:52;;;;;;;31.40;24.25;;;12.60;53.70;;;;;;1480988;40;20048;-53
2021/04/21 04:18:14;;;;;;;32.38;24.83;;;12.60;53.80;;;;;;1485193;39;20045;-53
2021/04/21 04:19:39;;;;;;;34.25;25.67;;;12.60;53.70;;;;;;1483249;40;20039;-50
2021/04/21 04:21:05;;;;;;;33.65;24.38;;;12.60;53.70;;;;;;1482750;39;20533;-51
2021/04/21 04:22:28;;;;;;;35.42;25.27;;;12.60;53.80;;;;;;1483451;40;20032;-51
2021/04/21 04:23:50;;;;;;;33.35;24.27;;;12.60;53.90;;;;;;1480851;40;20040;-53
2021/04/21 04:25:13;;;;;;;37.50;26.00;;;12.60;53.90;;;;;;1480753;40;20105;-52
2021/04/21 04:26:37;;;;;;;33.08;25.02;;;12.50;53.90;;;;;;1482324;40;20052;-53
2021/04/21 04:27:59;;;;;;;33.35;25.27;;;12.60;53.90;;;;;;1481835;40;20060;-51
2021/04/21 04:29:22;;;;;;;33.80;24.50;;;12.50;54.00;;;;;;1481602;40;20373;-54
2021/04/21 04:30:44;;;;;;;37.78;26.55;;;12.60;54.10;;;;;;1482242;40;20036;-51
2021/04/21 04:32:09;;;;;;;34.97;26.08;;;12.60;54.10;;;;;;1484780;40;20113;-54
2021/04/21 04:33:31;;;;;;;31.45;24.52;;;12.50;54.10;;;;;;1484009;40;20089;-53
2021/04/21 04:34:57;;;;;;;34.63;25.95;;;12.50;54.10;;;;;;1487050;40;20353;-51
2021/04/21 04:36:19;;;;;;;36.53;26.10;;;12.50;54.30;;;;;;1486044;39;20024;-51
2021/04/21 04:37:41;;;;;;;36.97;25.88;;;12.50;54.20;;;;;;1487732;40;20081;-51
2021/04/21 04:39:05;;;;;;;36.78;25.70;;;12.50;54.30;;;;;;1485374;40;20035;-52
2021/04/21 04:40:26;;;;;;;34.85;26.02;;;12.50;54.40;;;;;;1487727;39;20268;-50
2021/04/21 04:41:48;;;;;;;40.63;26.67;;;12.50;54.30;;;;;;1489092;39;20036;-51
2021/04/21 04:43:10;;;;;;;36.42;26.95;;;12.50;54.40;;;;;;1490082;39;20360;-52
2021/04/21 04:44:33;;;;;;;39.75;28.67;;;12.50;54.50;;;;;;1489167;39;20032;-52
2021/04/21 04:45:57;;;;;;;39.50;28.15;;;12.60;54.60;;;;;;1491029;39;20073;-52
2021/04/21 04:47:37;;;;;;;38.92;26.83;;;12.60;54.70;;;;;;1491483;39;20031;-50
2021/04/21 04:49:09;;;;;;;39.55;26.90;;;12.60;55.10;;;;;;1490975;39;20284;-50
2021/04/21 04:50:31;;;;;;;34.60;25.88;;;12.60;55.00;;;;;;1489641;39;20399;-50
2021/04/21 04:51:54;;;;;;;38.67;27.08;;;12.60;54.60;;;;;;1490930;39;20043;-50
2021/04/21 04:53:17;;;;;;;39.95;27.65;;;12.60;54.70;;;;;;1491471;39;20119;-52
2021/04/21 04:54:39;;;;;;;38.22;27.88;;;12.60;54.90;;;;;;1490504;39;20753;-52
2021/04/21 04:56:01;;;;;;;38.53;27.73;;;12.60;54.90;;;;;;1488835;39;20030;-50
2021/04/21 04:57:24;;;;;;;38.55;28.67;;;12.60;55.00;;;;;;1489365;39;20950;-51
2021/04/21 04:58:46;;;;;;;35.97;26.75;;;12.60;55.10;;;;;;1489641;39;20020;-52
2021/04/21 05:00:10;;;;;;;38.78;28.73;;;12.60;55.10;;;;;;1490003;39;20043;-54
2021/04/21 05:01:44;;;;;;;39.33;28.40;;;12.60;55.20;;;;;;1484260;40;20072;-50
2021/04/21 05:03:25;;;;;;;36.35;26.90;;;12.60;55.40;;;;;;1489237;39;20101;-53
2021/04/21 05:04:58;;;;;;;39.53;26.85;;;12.60;55.50;;;;;;1489520;39;20742;-51
2021/04/21 05:06:34;;;;;;;38.28;27.08;;;12.60;55.50;;;;;;1490506;39;20077;-51
2021/04/21 05:08:01;;;;;;;40.85;28.52;;;12.70;55.60;;;;;;1490398;39;20038;-53
2021/04/21 05:09:27;;;;;;;38.33;27.92;;;12.70;55.40;;;;;;1490559;39;20051;-50
2021/04/21 05:10:52;;;;;;;40.88;28.73;;;12.70;55.30;;;;;;1488339;39;20391;-53
2021/04/21 05:12:16;;;;;;;38.03;28.42;;;12.70;55.30;;;;;;1488812;39;20033;-52
2021/04/21 05:13:57;;;;;;;40.05;29.08;;;12.70;55.50;;;;;;1490076;39;20295;-53
2021/04/21 05:15:37;;;;;;;39.95;27.50;;;12.70;55.90;;;;;;1491327;39;20045;-54
2021/04/21 05:17:19;;;;;;;37.53;26.95;;;12.70;55.90;;;;;;1490897;39;20047;-54
2021/04/21 05:19:07;;;;;;;38.53;26.80;;;12.70;55.50;;;;;;1490636;39;20120;-53
2021/04/21 05:21:07;;;;;;;36.38;26.50;;;12.80;55.90;;;;;;1489131;39;20040;-54
2021/04/21 05:22:46;;;;;;;37.63;26.00;;;12.80;55.90;;;;;;1490800;39;20050;-54
2021/04/21 05:24:39;;;;;;;33.10;24.85;;;12.80;55.30;;;;;;1490130;39;20345;-50
2021/04/21 05:26:41;;;;;;;35.83;25.05;;;12.80;55.90;;;;;;1488911;39;20040;-49
2021/04/21 05:28:33;;;;;;;34.83;25.88;;;12.80;55.90;;;;;;1489524;39;20027;-54
2021/04/21 05:30:27;;;;;;;37.88;26.25;;;12.80;55.80;;;;;;1488946;39;20055;-50
2021/04/21 05:32:26;;;;;;;32.97;23.42;;;12.90;55.90;;;;;;1488711;39;20047;-54
2021/04/21 05:34:18;;;;;;;36.35;25.83;;;12.90;55.90;;;;;;1489544;39;20028;-52
2021/04/21 05:36:07;;;;;;;36.65;26.52;;;12.90;55.80;;;;;;1489428;39;20059;-53
2021/04/21 05:38:04;;;;;;;36.55;26.58;;;13.00;56.00;;;;;;1487703;39;20020;-53
2021/04/21 05:39:28;;;;;;;36.65;26.67;;;13.00;56.00;;;;;;1491214;39;20353;-51
2021/04/21 05:41:17;;;;;;;37.65;27.23;;;13.00;55.60;;;;;;1489690;39;20023;-54
2021/04/21 05:43:22;;;;;;;38.05;26.90;;;13.00;55.80;;;;;;1490540;39;20027;-54
2021/04/21 05:44:58;;;;;;;35.75;26.48;;;13.00;56.00;;;;;;1488731;39;20768;-53
2021/04/21 05:46:57;;;;;;;37.40;27.27;;;13.00;55.40;;;;;;1488759;39;20105;-54
2021/04/21 05:48:45;;;;;;;37.40;25.73;;;13.00;55.90;;;;;;1489391;39;20075;-54
2021/04/21 05:50:25;;;;;;;38.05;25.58;;;13.10;55.90;;;;;;1490466;39;20031;-50
2021/04/21 05:51:51;;;;;;;37.30;26.05;;;13.00;55.50;;;;;;1490989;39;20038;-54
2021/04/21 05:53:31;;;;;;;37.10;26.80;;;13.10;55.80;;;;;;1489915;39;20036;-52
2021/04/21 05:55:17;;;;;;;40.97;28.30;;;13.10;55.70;;;;;;1489753;39;20026;-53
2021/04/21 05:57:12;;;;;;;38.83;26.65;;;13.10;56.00;;;;;;1489314;39;20063;-51
2021/04/21 05:58:42;;;;;;;36.35;25.90;;;13.10;56.00;;;;;;1489628;39;20043;-55
2021/04/21 06:00:31;;;;;;;34.58;25.80;;;13.20;55.80;;;;;;1488983;39;20272;-54
2021/04/21 06:01:54;;;;;;;37.15;26.30;;;13.20;55.80;;;;;;1491255;39;20393;-51
2021/04/21 06:03:17;;;;;;;37.03;27.60;;;13.20;55.40;;;;;;1490487;39;20039;-55
2021/04/21 06:04:38;;;;;;;39.17;28.23;;;13.20;55.50;;;;;;1489320;39;20039;-56
2021/04/21 06:06:03;;;;;;;40.80;28.95;;;13.20;55.50;;;;;;1490211;39;20020;-51
2021/04/21 06:07:25;;;;;;;37.97;27.73;;;13.20;55.70;;;;;;1488977;39;20253;-52
2021/04/21 06:08:46;;;;;;;40.60;28.60;;;13.20;55.60;;;;;;1491030;39;20019;-53
2021/04/21 06:10:28;;;;;;;40.53;28.48;;;13.20;55.70;;;;;;1489247;39;20024;-52
2021/04/21 06:12:03;;;;;;;39.40;27.50;;;13.20;56.00;;;;;;1490940;39;20046;-53
2021/04/21 06:13:32;;;;;;;38.47;27.52;;;13.20;55.60;;;;;;1490463;39;20020;-54
2021/04/21 06:14:54;;;;;;;39.10;28.77;;;13.20;55.80;;;;;;1490336;39;20142;-54
2021/04/21 06:16:20;;;;;;;40.40;29.08;;;13.30;55.70;;;;;;1490045;39;20027;-51
2021/04/21 06:17:45;;;;;;;41.15;28.10;;;13.30;55.80;;;;;;1489819;39;20196;-51
2021/04/21 06:19:08;;;;;;;40.80;29.50;;;13.30;55.80;;;;;;1490951;39;20050;-51
2021/04/21 06:20:33;;;;;;;40.08;29.00;;;13.30;55.70;;;;;;1489064;39;20303;-55
2021/04/21 06:21:54;;;;;;;40.25;28.63;;;13.30;56.00;;;;;;1490664;39;20036;-53
2021/04/21 06:23:19;;;;;;;39.60;29.02;;;13.30;55.80;;;;;;1488466;39;20360;-55
2021/04/21 06:24:39;;;;;;;42.53;30.92;;;13.30;56.00;;;;;;1490503;39;20078;-55
2021/04/21 06:26:02;;;;;;;40.42;29.42;;;13.30;55.90;;;;;;1490096;39;20265;-49
2021/04/21 06:27:23;;;;;;;41.85;28.98;;;13.30;56.00;;;;;;1490751;39;20040;-52
2021/04/21 06:28:44;;;;;;;43.83;29.55;;;13.30;55.90;;;;;;1490185;39;20093;-56
2021/04/21 06:30:07;;;;;;;40.63;28.67;;;13.40;56.00;;;;;;1488917;39;20398;-52
2021/04/21 06:31:50;;;;;;;40.65;29.58;;;13.40;55.90;;;;;;1486842;39;20029;-51
2021/04/21 06:33:11;;;;;;;40.25;29.42;;;13.40;56.20;;;;;;1488139;39;20417;-53
2021/04/21 06:34:33;;;;;;;40.85;29.88;;;13.40;55.80;;;;;;1490359;39;20120;-50
2021/04/21 06:35:56;;;;;;;41.38;31.02;;;13.40;55.80;;;;;;1490544;39;20032;-52
2021/04/21 06:37:17;;;;;;;45.60;33.05;;;13.40;55.80;;;;;;1491857;39;20082;-54
2021/04/21 06:38:39;;;;;;;43.55;31.10;;;13.50;55.80;;;;;;1491544;39;20047;-53
2021/04/21 06:40:04;;;;;;;43.47;31.70;;;13.50;55.80;;;;;;1490876;39;20055;-50
2021/04/21 06:41:25;;;;;;;43.22;30.00;;;13.50;55.80;;;;;;1490818;39;20181;-52
2021/04/21 06:42:46;;;;;;;42.45;29.67;;;13.50;55.90;;;;;;1490324;39;20047;-53
2021/04/21 06:44:08;;;;;;;43.38;30.80;;;13.50;55.80;;;;;;1490496;39;20028;-55
2021/04/21 06:45:35;;;;;;;39.25;28.83;;;13.50;56.40;;;;;;1489068;39;20312;-54
2021/04/21 06:46:55;;;;;;;40.50;30.65;;;13.50;56.00;;;;;;1491315;39;20041;-52
2021/04/21 06:48:33;;;;;;;43.20;31.48;;;13.50;55.90;;;;;;1490404;39;20291;-54
2021/04/21 06:50:06;;;;;;;42.90;30.63;;;13.50;56.20;;;;;;1488281;39;20035;-49
2021/04/21 06:51:28;;;;;;;38.38;27.67;;;13.50;56.00;;;;;;1490916;39;20280;-51
2021/04/21 06:52:49;;;;;;;41.25;30.85;;;13.50;55.80;;;;;;1490737;39;20079;-53
2021/04/21 06:54:10;;;;;;;42.10;30.77;;;13.60;55.80;;;;;;1490571;39;20402;-50
2021/04/21 06:55:33;;;;;;;41.88;30.65;;;13.60;55.90;;;;;;1490299;39;20028;-53
2021/04/21 06:56:53;;;;;;;42.83;30.67;;;13.60;55.90;;;;;;1490469;39;20107;-51
2021/04/21 06:58:17;;;;;;;40.90;30.92;;;13.60;55.90;;;;;;1489515;39;20040;-51
2021/04/21 06:59:37;;;;;;;39.47;29.42;;;13.60;56.00;;;;;;1490707;39;20031;-52
2021/04/21 07:01:08;;;;;;;43.15;30.02;;;13.60;55.90;;;;;;1488815;39;20279;-51
2021/04/21 07:02:54;;;;;;;39.10;29.58;;;13.70;56.10;;;;;;1490913;39;20116;-52
2021/04/21 07:04:19;;;;;;;42.42;29.92;;;13.70;56.30;;;;;;1489738;39;20038;-53
2021/04/21 07:05:43;;;;;;;40.33;30.08;;;13.80;56.20;;;;;;1491812;39;20040;-50
2021/04/21 07:07:04;;;;;;;42.40;29.95;;;13.80;56.00;;;;;;1490561;39;20271;-51
2021/04/21 07:08:32;;;;;;;38.90;29.48;;;13.80;55.90;;;;;;1491292;39;20034;-52
2021/04/21 07:09:54;;;;;;;42.60;31.98;;;13.80;56.10;;;;;;1489071;39;20048;-51
2021/04/21 07:11:17;;;;;;;45.42;33.33;;;13.80;56.00;;;;;;1487978;39;20032;-50
2021/04/21 07:12:38;;;;;;;45.85;33.60;;;13.90;56.00;;;;;;1490915;39;20070;-53
2021/04/21 07:13:58;;;;;;;46.15;32.67;;;13.90;56.00;;;;;;1491163;39;20024;-53
2021/04/21 07:15:20;;;;;;;45.20;33.30;;;13.90;55.90;;;;;;1489706;39;20116;-53
2021/04/21 07:16:42;;;;;;;45.72;32.88;;;13.90;56.00;;;;;;1488003;39;20036;-53
2021/04/21 07:18:03;;;;;;;45.65;33.38;;;14.00;56.00;;;;;;1490981;39;20044;-52
2021/04/21 07:19:26;;;;;;;41.83;31.27;;;14.00;56.00;;;;;;1491554;39;20019;-52
2021/04/21 07:20:48;;;;;;;43.60;32.20;;;13.90;56.00;;;;;;1490303;39;20338;-52
2021/04/21 07:22:12;;;;;;;42.65;30.90;;;14.00;56.10;;;;;;1491064;39;20076;-51
2021/04/21 07:23:37;;;;;;;44.42;32.03;;;14.00;56.10;;;;;;1489165;39;20047;-51
2021/04/21 07:24:58;;;;;;;39.38;29.90;;;14.10;56.00;;;;;;1490139;39;20044;-54
2021/04/21 07:26:26;;;;;;;43.13;31.60;;;14.10;56.00;;;;;;1490327;39;20413;-52
2021/04/21 07:27:53;;;;;;;44.72;31.63;;;14.10;56.10;;;;;;1488655;39;20342;-50
2021/04/21 07:29:20;;;;;;;45.35;33.35;;;14.10;56.10;;;;;;1490854;39;20044;-52
2021/04/21 07:30:41;;;;;;;42.15;31.48;;;14.20;56.00;;;;;;1491415;39;20418;-53
2021/04/21 07:32:20;;;;;;;44.15;32.53;;;14.20;55.80;;;;;;1490829;39;20032;-53
2021/04/21 07:33:46;;;;;;;43.08;31.77;;;14.20;55.90;;;;;;1489800;39;20411;-50
2021/04/21 07:35:08;;;;;;;43.15;31.40;;;14.20;55.70;;;;;;1491507;39;20054;-55